createdAt,value
2024-04-07T00:01:08.561Z,12.7
2024-04-07T00:03:34.652Z,12.7
2024-04-07T00:05:59.766Z,12.6
2024-04-07T00:08:25.857Z,12.6
2024-04-07T00:10:51.949Z,12.6
2024-04-07T00:13:18.039Z,12.5
2024-04-07T00:15:44.133Z,12.5
2024-04-07T00:18:10.226Z,12.5
2024-04-07T00:20:36.341Z,12.5
2024-04-07T00:23:02.528Z,12.4
2024-04-07T00:25:28.501Z,12.4
2024-04-07T00:27:54.604Z,12.4
2024-04-07T00:30:20.699Z,12.4
2024-04-07T00:32:46.799Z,12.4
2024-04-07T00:35:12.899Z,12.4
2024-04-07T00:37:38.004Z,12.4
2024-04-07T00:40:04.105Z,12.4
2024-04-07T00:42:29.210Z,12.4
2024-04-07T00:44:55.312Z,12.4
2024-04-07T00:47:21.400Z,12.4
2024-04-07T00:49:47.493Z,12.4
2024-04-07T00:52:13.585Z,12.3
2024-04-07T00:54:39.677Z,12.3
2024-04-07T00:57:05.777Z,12.3
2024-04-07T00:59:31.890Z,12.3
2024-04-07T01:01:58.023Z,12.3
2024-04-07T01:04:24.075Z,12.2
2024-04-07T01:06:50.165Z,12.2
2024-04-07T01:09:16.255Z,12.2
2024-04-07T01:11:42.352Z,12.2
2024-04-07T01:14:07.469Z,12.1
2024-04-07T01:16:33.551Z,12.1
2024-04-07T01:18:59.660Z,12.1
2024-04-07T01:21:25.739Z,12
2024-04-07T01:23:51.831Z,12
2024-04-07T01:26:17.929Z,12
2024-04-07T01:28:44.034Z,11.9
2024-04-07T01:31:10.137Z,11.9
2024-04-07T01:33:36.217Z,11.9
2024-04-07T01:36:02.317Z,11.8
2024-04-07T01:38:28.407Z,11.8
2024-04-07T01:40:54.505Z,11.8
2024-04-07T01:43:20.583Z,11.8
2024-04-07T01:45:45.709Z,11.8
2024-04-07T01:48:11.806Z,11.8
2024-04-07T01:50:37.899Z,11.8
2024-04-07T01:53:03.989Z,11.7
2024-04-07T01:55:30.096Z,11.7
2024-04-07T01:57:56.171Z,11.7
2024-04-07T02:00:22.292Z,11.7
2024-04-07T02:02:48.400Z,11.7
2024-04-07T02:05:14.474Z,11.7
2024-04-07T02:07:40.602Z,11.6
2024-04-07T02:10:06.669Z,11.6
2024-04-07T02:12:32.755Z,11.6
2024-04-07T02:14:58.835Z,11.5
2024-04-07T02:17:23.957Z,11.5
2024-04-07T02:19:50.055Z,11.5
2024-04-07T02:22:16.145Z,11.5
2024-04-07T02:24:42.244Z,11.4
2024-04-07T02:27:08.335Z,11.4
2024-04-07T02:29:34.432Z,11.4
2024-04-07T02:32:00.527Z,11.4
2024-04-07T02:34:26.609Z,11.4
2024-04-07T02:36:52.713Z,11.4
2024-04-07T02:39:18.810Z,11.4
2024-04-07T02:41:44.904Z,11.4
2024-04-07T02:44:10.999Z,11.3
2024-04-07T02:46:37.097Z,11.3
2024-04-07T02:49:02.204Z,11.3
2024-04-07T02:51:28.277Z,11.3
2024-04-07T02:53:54.381Z,11.3
2024-04-07T02:56:20.483Z,11.3
2024-04-07T02:58:46.583Z,11.3
2024-04-07T03:01:12.676Z,11.3
2024-04-07T03:03:38.769Z,11.3
2024-04-07T03:06:04.854Z,11.3
2024-04-07T03:08:30.954Z,11.3
2024-04-07T03:10:57.072Z,11.3
2024-04-07T03:13:23.148Z,11.3
2024-04-07T03:15:49.229Z,11.3
2024-04-07T03:18:15.345Z,11.3
2024-04-07T03:20:40.438Z,11.3
2024-04-07T03:23:06.545Z,11.3
2024-04-07T03:25:32.636Z,11.3
2024-04-07T03:27:58.737Z,11.3
2024-04-07T03:30:24.822Z,11.3
2024-04-07T03:32:50.920Z,11.3
2024-04-07T03:35:17.007Z,11.3
2024-04-07T03:37:43.102Z,11.3
2024-04-07T03:40:09.190Z,11.3
2024-04-07T03:42:35.297Z,11.3
2024-04-07T03:45:01.392Z,11.3
2024-04-07T03:47:27.498Z,11.3
2024-04-07T03:49:53.567Z,11.2
2024-04-07T03:52:18.698Z,11.2
2024-04-07T03:54:44.777Z,11.2
2024-04-07T03:57:10.874Z,11.2
2024-04-07T03:59:36.977Z,11.1
2024-04-07T04:02:03.068Z,11.1
2024-04-07T04:04:29.174Z,11.1
2024-04-07T04:06:55.260Z,11.1
2024-04-07T04:09:21.372Z,11.1
2024-04-07T04:11:47.457Z,11.1
2024-04-07T04:14:13.532Z,11.1
2024-04-07T04:16:39.635Z,11.1
2024-04-07T04:19:05.734Z,11
2024-04-07T04:21:31.838Z,11
2024-04-07T04:23:56.950Z,11
2024-04-07T04:26:23.022Z,11
2024-04-07T04:28:49.117Z,10.9
2024-04-07T04:31:15.223Z,10.9
2024-04-07T04:33:41.322Z,10.9
2024-04-07T04:36:07.399Z,10.9
2024-04-07T04:38:33.509Z,10.8
2024-04-07T04:40:59.607Z,10.8
2024-04-07T04:43:25.702Z,10.8
2024-04-07T04:45:51.797Z,10.8
2024-04-07T04:48:17.884Z,10.7
2024-04-07T04:50:43.985Z,10.7
2024-04-07T04:53:10.078Z,10.7
2024-04-07T04:55:35.182Z,10.7
2024-04-07T04:58:01.294Z,10.7
2024-04-07T05:00:27.374Z,10.7
2024-04-07T05:02:53.490Z,10.7
2024-04-07T05:05:19.568Z,10.6
2024-04-07T05:07:45.670Z,10.6
2024-04-07T05:10:11.753Z,10.6
2024-04-07T05:12:37.841Z,10.6
2024-04-07T05:15:03.948Z,10.7
2024-04-07T05:17:30.034Z,10.7
2024-04-07T05:19:56.128Z,10.7
2024-04-07T05:22:22.229Z,10.8
2024-04-07T05:24:48.324Z,10.8
2024-04-07T05:27:13.438Z,10.8
2024-04-07T05:29:39.553Z,10.9
2024-04-07T05:32:05.614Z,10.9
2024-04-07T05:34:31.718Z,10.9
2024-04-07T05:36:57.819Z,10.9
2024-04-07T05:39:23.908Z,11
2024-04-07T05:41:49.992Z,11
2024-04-07T05:44:16.092Z,11
2024-04-07T05:46:42.184Z,11
2024-04-07T05:49:08.278Z,11.1
2024-04-07T05:51:34.374Z,11.1
2024-04-07T05:54:00.470Z,11.1
2024-04-07T05:56:26.567Z,11.2
2024-04-07T05:58:51.678Z,11.3
2024-04-07T06:01:17.770Z,11.3
2024-04-07T06:03:43.857Z,11.3
2024-04-07T06:06:09.952Z,11.4
2024-04-07T06:08:36.045Z,11.4
2024-04-07T06:11:02.145Z,11.4
2024-04-07T06:13:28.232Z,11.5
2024-04-07T06:15:54.339Z,11.5
2024-04-07T06:18:20.421Z,11.5
2024-04-07T06:20:46.530Z,11.6
2024-04-07T06:23:12.621Z,11.6
2024-04-07T06:25:38.718Z,11.7
2024-04-07T06:28:04.794Z,11.7
2024-04-07T06:30:29.917Z,11.8
2024-04-07T06:32:56.010Z,11.9
2024-04-07T06:35:22.102Z,12
2024-04-07T06:37:48.220Z,12.1
2024-04-07T06:40:14.291Z,12.1
2024-04-07T06:42:40.390Z,12.2
2024-04-07T06:45:06.468Z,12.3
2024-04-07T06:47:32.580Z,12.4
2024-04-07T06:49:58.675Z,12.5
2024-04-07T06:52:24.770Z,12.6
2024-04-07T06:54:50.862Z,12.7
2024-04-07T06:57:16.952Z,12.8
2024-04-07T06:59:43.050Z,12.9
2024-04-07T07:02:08.187Z,12.9
2024-04-07T07:04:34.264Z,13
2024-04-07T07:07:00.347Z,13.1
2024-04-07T07:09:26.449Z,13.1
2024-04-07T07:11:52.552Z,13.2
2024-04-07T07:14:18.628Z,13.3
2024-04-07T07:16:44.721Z,13.4
2024-04-07T07:19:10.838Z,13.4
2024-04-07T07:21:36.916Z,13.5
2024-04-07T07:24:02.998Z,13.6
2024-04-07T07:26:29.090Z,13.7
2024-04-07T07:28:55.197Z,13.8
2024-04-07T07:31:21.292Z,13.9
2024-04-07T07:33:46.411Z,14
2024-04-07T07:36:12.507Z,14.1
2024-04-07T07:38:38.599Z,14.2
2024-04-07T07:41:04.712Z,14.3
2024-04-07T07:43:30.787Z,14.4
2024-04-07T07:45:56.875Z,14.6
2024-04-07T07:48:22.980Z,14.7
2024-04-07T07:50:49.072Z,14.8
2024-04-07T07:53:15.148Z,14.9
2024-04-07T07:55:41.258Z,15.1
2024-04-07T07:58:07.355Z,15.2
2024-04-07T08:00:33.434Z,15.4
2024-04-07T08:02:59.549Z,15.5
2024-04-07T08:05:25.634Z,15.7
2024-04-07T08:07:50.755Z,15.9
2024-04-07T08:10:16.844Z,16.1
2024-04-07T08:12:42.944Z,16.3
2024-04-07T08:15:09.043Z,16.5
2024-04-07T08:17:35.133Z,16.7
2024-04-07T08:20:01.241Z,16.8
2024-04-07T08:22:27.461Z,17
2024-04-07T08:24:53.620Z,17.1
2024-04-07T08:27:19.674Z,17.2
2024-04-07T08:29:45.915Z,17.3
2024-04-07T08:32:11.987Z,17.5
2024-04-07T08:34:38.131Z,17.6
2024-04-07T08:37:04.015Z,17.8
2024-04-07T08:39:29.115Z,17.9
2024-04-07T08:41:55.082Z,18.1
2024-04-07T08:44:21.191Z,18.3
2024-04-07T08:46:47.271Z,18.4
2024-04-07T08:49:13.379Z,18.6
2024-04-07T08:51:38.497Z,18.7
2024-04-07T08:54:04.580Z,18.9
2024-04-07T08:56:30.678Z,19
2024-04-07T08:58:56.770Z,19.2
2024-04-07T09:01:22.857Z,19.3
2024-04-07T09:03:48.947Z,19.4
2024-04-07T09:06:15.044Z,19.5
2024-04-07T09:08:41.161Z,19.6
2024-04-07T09:11:07.240Z,19.7
2024-04-07T09:13:33.323Z,19.9
2024-04-07T09:15:59.433Z,20
2024-04-07T09:18:25.538Z,20.1
2024-04-07T09:20:51.614Z,20.2
2024-04-07T09:23:16.722Z,20.3
2024-04-07T09:25:42.802Z,20.4
2024-04-07T09:28:08.977Z,20.5
2024-04-07T09:30:35.115Z,20.5
2024-04-07T09:33:01.091Z,20.7
2024-04-07T09:35:27.220Z,20.8
2024-04-07T09:37:53.301Z,20.9
2024-04-07T09:40:19.372Z,21
2024-04-07T09:42:45.471Z,21.1
2024-04-07T09:45:11.571Z,21.2
2024-04-07T09:47:37.665Z,21.3
2024-04-07T09:50:03.747Z,21.4
2024-04-07T09:52:29.843Z,21.5
2024-04-07T09:54:54.961Z,21.6
2024-04-07T09:57:21.070Z,21.7
2024-04-07T09:59:47.154Z,21.9
2024-04-07T10:02:13.254Z,22
2024-04-07T10:04:39.351Z,22.1
2024-04-07T10:07:05.444Z,22.2
2024-04-07T10:09:31.543Z,22.3
2024-04-07T10:11:57.623Z,22.4
2024-04-07T10:14:23.712Z,22.4
2024-04-07T10:16:49.810Z,22.4
2024-04-07T10:19:16.186Z,22.4
2024-04-07T10:21:42.020Z,22.4
2024-04-07T10:24:08.100Z,22.3
2024-04-07T10:26:33.218Z,22.3
2024-04-07T10:28:59.321Z,22.2
2024-04-07T10:31:25.412Z,22.2
2024-04-07T10:33:51.502Z,22.2
2024-04-07T10:36:17.593Z,22.2
2024-04-07T10:38:43.833Z,22.2
2024-04-07T10:41:09.792Z,22.2
2024-04-07T10:43:35.881Z,22.2
2024-04-07T10:46:01.961Z,22.2
2024-04-07T10:48:28.053Z,22.3
2024-04-07T10:50:54.151Z,22.3
2024-04-07T10:53:20.235Z,22.4
2024-04-07T10:55:46.342Z,22.5
2024-04-07T10:58:11.445Z,22.7
2024-04-07T11:00:37.710Z,22.8
2024-04-07T11:03:03.628Z,23
2024-04-07T11:05:29.732Z,23.1
2024-04-07T11:07:55.838Z,23.3
2024-04-07T11:10:21.912Z,23.4
2024-04-07T11:12:47.995Z,23.6
2024-04-07T11:15:14.082Z,23.7
2024-04-07T11:17:40.212Z,23.8
2024-04-07T11:20:06.295Z,23.9
2024-04-07T11:22:32.385Z,23.9
2024-04-07T11:24:58.473Z,24
2024-04-07T11:27:24.567Z,24
2024-04-07T11:29:49.678Z,24.1
2024-04-07T11:32:15.781Z,24.1
2024-04-07T11:34:41.874Z,24.2
2024-04-07T11:37:07.970Z,24.2
2024-04-07T11:39:34.066Z,24.3
2024-04-07T11:42:00.161Z,24.3
2024-04-07T11:44:26.244Z,24.4
2024-04-07T11:46:52.357Z,24.4
2024-04-07T11:49:18.445Z,24.5
2024-04-07T11:51:44.537Z,24.6
2024-04-07T11:54:10.636Z,24.6
2024-04-07T11:56:36.728Z,24.7
2024-04-07T11:59:02.815Z,24.8
2024-04-07T12:01:27.922Z,24.9
2024-04-07T12:03:54.034Z,25.1
2024-04-07T12:06:20.120Z,25.2
2024-04-07T12:08:46.210Z,25.3
2024-04-07T12:11:12.306Z,25.4
2024-04-07T12:13:38.386Z,25.5
2024-04-07T12:16:04.497Z,25.6
2024-04-07T12:18:30.599Z,25.7
2024-04-07T12:20:56.690Z,25.7
2024-04-07T12:23:22.772Z,25.8
2024-04-07T12:25:48.877Z,25.9
2024-04-07T12:28:14.957Z,26
2024-04-07T12:30:41.067Z,26.2
2024-04-07T12:33:06.184Z,26.3
2024-04-07T12:35:32.269Z,26.4
2024-04-07T12:37:58.360Z,26.5
2024-04-07T12:40:24.441Z,26.6
2024-04-07T12:42:50.540Z,26.7
2024-04-07T12:45:16.635Z,26.9
2024-04-07T12:47:42.738Z,27.1
2024-04-07T12:50:08.826Z,27.2
2024-04-07T12:52:34.914Z,27.2
2024-04-07T12:55:01.004Z,27.2
2024-04-07T12:57:27.112Z,27.3
2024-04-07T12:59:53.218Z,27.4
2024-04-07T13:02:19.299Z,27.5
2024-04-07T13:04:44.432Z,27.6
2024-04-07T13:07:10.506Z,27.8
2024-04-07T13:09:36.607Z,27.9
2024-04-07T13:12:02.681Z,27.9
2024-04-07T13:14:28.802Z,28
2024-04-07T13:16:54.910Z,28
2024-04-07T13:19:20.979Z,28
2024-04-07T13:21:47.086Z,28.1
2024-04-07T13:24:13.176Z,28.1
2024-04-07T13:26:39.277Z,28.2
2024-04-07T13:29:05.383Z,28.2
2024-04-07T13:31:31.448Z,28.3
2024-04-07T13:33:57.549Z,28.4
2024-04-07T13:36:23.651Z,28.5
2024-04-07T13:38:49.747Z,28.5
2024-04-07T13:41:15.838Z,28.5
2024-04-07T13:43:41.923Z,28.5
2024-04-07T13:46:08.020Z,28.5
2024-04-07T13:48:33.182Z,28.5
2024-04-07T13:50:59.220Z,28.4
2024-04-07T13:53:25.330Z,28.4
2024-04-07T13:55:51.520Z,28.4
2024-04-07T13:58:17.522Z,28.5
2024-04-07T14:00:43.612Z,28.5
2024-04-07T14:03:09.713Z,28.6
2024-04-07T14:05:35.809Z,28.8
2024-04-07T14:08:01.906Z,29.1
2024-04-07T14:10:27.987Z,29.4
2024-04-07T14:12:54.075Z,29.7
2024-04-07T14:15:20.178Z,30
2024-04-07T14:17:46.270Z,30.3
2024-04-07T14:20:12.375Z,30.5
2024-04-07T14:22:38.450Z,30.6
2024-04-07T14:25:04.550Z,30.6
2024-04-07T14:27:30.654Z,30.6
2024-04-07T14:29:56.748Z,30.7
2024-04-07T14:32:22.839Z,30.7
2024-04-07T14:34:48.943Z,30.8
2024-04-07T14:37:14.026Z,30.9
2024-04-07T14:39:40.142Z,31
2024-04-07T14:42:06.257Z,31.1
2024-04-07T14:44:32.318Z,31.2
2024-04-07T14:46:58.416Z,31.5
2024-04-07T14:49:24.504Z,31.8
2024-04-07T14:51:50.605Z,32
2024-04-07T14:54:16.700Z,32.4
2024-04-07T14:56:42.794Z,32.7
2024-04-07T14:59:08.902Z,33
2024-04-07T15:01:34.992Z,33.3
2024-04-07T15:04:01.098Z,33.6
2024-04-07T15:06:27.177Z,33.6
2024-04-07T15:08:52.297Z,33.5
2024-04-07T15:13:44.468Z,33.5
2024-04-07T15:16:10.577Z,33.5
2024-04-07T15:18:36.675Z,33.5
2024-04-07T15:21:02.764Z,33.4
2024-04-07T15:23:28.862Z,33.5
2024-04-07T15:25:54.957Z,33.5
2024-04-07T15:30:47.158Z,33.6
2024-04-07T15:33:13.240Z,33.5
2024-04-07T15:35:39.341Z,33.3
2024-04-07T15:38:05.444Z,33.2
2024-04-07T15:42:56.631Z,33
2024-04-07T15:45:21.737Z,32.9
2024-04-07T15:47:46.869Z,32.8
2024-04-07T15:50:12.960Z,32.7
2024-04-07T15:52:39.083Z,32.7
2024-04-07T15:55:05.151Z,32.7
2024-04-07T15:57:31.247Z,32.6
2024-04-07T15:59:57.349Z,32.5
2024-04-07T16:02:23.425Z,32.5
2024-04-07T16:04:49.539Z,32.5
2024-04-07T16:07:15.958Z,32.6
2024-04-07T16:09:40.767Z,32.5
2024-04-07T16:12:06.014Z,32.4
2024-04-07T16:14:31.966Z,32.2
2024-04-07T16:16:58.047Z,31.9
2024-04-07T16:19:24.153Z,31.6
2024-04-07T16:21:50.230Z,31.3
2024-04-07T16:24:16.322Z,30.9
2024-04-07T16:26:42.750Z,30.5
2024-04-07T16:29:08.601Z,30.2
2024-04-07T16:31:34.627Z,29.9
2024-04-07T16:34:00.703Z,29.6
2024-04-07T16:36:27.112Z,29.3
2024-04-07T16:38:53.116Z,28.9
2024-04-07T16:41:19.174Z,28.6
2024-04-07T16:43:45.452Z,28.3
2024-04-07T16:46:11.580Z,27.9
2024-04-07T16:48:37.362Z,27.6
2024-04-07T16:51:03.716Z,27.2
2024-04-07T16:53:28.760Z,26.9
2024-04-07T16:55:54.846Z,26.7
2024-04-07T16:58:20.674Z,26.4
2024-04-07T17:00:46.046Z,26.2
2024-04-07T17:03:11.899Z,25.9
2024-04-07T17:05:38.261Z,25.7
2024-04-07T17:08:04.071Z,25.5
2024-04-07T17:10:30.159Z,25.3
2024-04-07T17:12:56.252Z,25.1
2024-04-07T17:15:22.355Z,24.9
2024-04-07T17:17:48.432Z,24.7
2024-04-07T17:20:14.544Z,24.5
2024-04-07T17:22:40.652Z,24.3
2024-04-07T17:25:06.736Z,24.1
2024-04-07T17:27:32.808Z,23.9
2024-04-07T17:29:58.927Z,23.7
2024-04-07T17:32:24.028Z,23.6
2024-04-07T17:34:50.125Z,23.4
2024-04-07T17:37:16.217Z,23.2
2024-04-07T17:39:42.323Z,23.1
2024-04-07T17:42:08.411Z,22.9
2024-04-07T17:44:34.520Z,22.8
2024-04-07T17:47:00.602Z,22.6
2024-04-07T17:49:26.678Z,22.5
2024-04-07T17:51:52.781Z,22.3
2024-04-07T17:54:18.875Z,22.2
2024-04-07T17:56:44.974Z,22
2024-04-07T17:59:11.065Z,21.9
2024-04-07T18:01:37.168Z,21.8
2024-04-07T18:04:02.284Z,21.6
2024-04-07T18:06:28.371Z,21.5
2024-04-07T18:08:54.475Z,21.4
2024-04-07T18:11:20.560Z,21.3
2024-04-07T18:13:46.631Z,21.1
2024-04-07T18:18:38.828Z,20.9
2024-04-07T18:21:04.962Z,20.8
2024-04-07T18:23:31.020Z,20.7
2024-04-07T18:25:57.113Z,20.6
2024-04-07T18:28:23.239Z,20.5
2024-04-07T18:30:49.328Z,20.4
2024-04-07T18:33:15.401Z,20.3
2024-04-07T18:35:40.519Z,20.2
2024-04-07T18:38:06.601Z,20.1
2024-04-07T18:40:32.703Z,20
2024-04-07T18:42:58.798Z,20
2024-04-07T18:45:24.874Z,19.9
2024-04-07T18:47:51.017Z,19.8
2024-04-07T18:50:17.086Z,19.7
2024-04-07T18:52:43.168Z,19.7
2024-04-07T18:55:09.264Z,19.6
2024-04-07T18:57:35.368Z,19.6
2024-04-07T19:00:01.443Z,19.5
2024-04-07T19:02:27.541Z,19.4
2024-04-07T19:04:53.641Z,19.4
2024-04-07T19:07:18.742Z,19.3
2024-04-07T19:09:44.822Z,19.3
2024-04-07T19:12:10.922Z,19.3
2024-04-07T19:14:37.029Z,19.2
2024-04-07T19:17:03.113Z,19.2
2024-04-07T19:19:29.202Z,19.1
2024-04-07T19:21:55.304Z,19.1
2024-04-07T19:24:21.395Z,19
2024-04-07T19:26:47.506Z,19
2024-04-07T19:29:13.607Z,18.9
2024-04-07T19:31:39.696Z,18.9
2024-04-07T19:34:05.791Z,18.8
2024-04-07T19:36:31.898Z,18.8
2024-04-07T19:38:56.988Z,18.7
2024-04-07T19:41:23.089Z,18.7
2024-04-07T19:43:49.178Z,18.6
2024-04-07T19:46:15.256Z,18.6
2024-04-07T19:48:41.360Z,18.5
2024-04-07T19:51:07.458Z,18.5
2024-04-07T19:53:33.529Z,18.5
2024-04-07T19:55:59.640Z,18.4
2024-04-07T19:58:25.749Z,18.4
2024-04-07T20:00:51.825Z,18.4
2024-04-07T20:03:17.928Z,18.3
2024-04-07T20:05:44.059Z,18.3
2024-04-07T20:08:10.111Z,18.3
2024-04-07T20:10:35.254Z,18.3
2024-04-07T20:13:01.312Z,18.2
2024-04-07T20:15:27.414Z,18.2
2024-04-07T20:17:53.502Z,18.2
2024-04-07T20:20:19.583Z,18.2
2024-04-07T20:22:45.723Z,18.2
2024-04-07T20:25:11.795Z,18.2
2024-04-07T20:27:37.893Z,18.2
2024-04-07T20:30:03.982Z,18.2
2024-04-07T20:32:30.073Z,18.2
2024-04-07T20:34:56.158Z,18.2
2024-04-07T20:37:22.259Z,18.2
2024-04-07T20:39:48.347Z,18.3
2024-04-07T20:42:13.473Z,18.2
2024-04-07T20:44:39.569Z,18.2
2024-04-07T20:47:05.667Z,18.2
2024-04-07T20:49:31.751Z,18.2
2024-04-07T20:51:57.837Z,18.2
2024-04-07T20:54:23.935Z,18.2
2024-04-07T20:56:50.063Z,18.2
2024-04-07T20:59:16.122Z,18.2
2024-04-07T21:01:42.245Z,18.2
2024-04-07T21:04:08.334Z,18.1
2024-04-07T21:06:34.452Z,18.1
2024-04-07T21:09:00.492Z,18.1
2024-04-07T21:11:26.604Z,18.1
2024-04-07T21:13:51.700Z,18
2024-04-07T21:16:17.812Z,18
2024-04-07T21:18:43.886Z,18
2024-04-07T21:21:10.023Z,18
2024-04-07T21:23:36.091Z,17.9
2024-04-07T21:26:02.179Z,17.9
2024-04-07T21:28:28.278Z,17.9
2024-04-07T21:30:54.380Z,17.9
2024-04-07T21:33:20.460Z,17.9
2024-04-07T21:35:46.561Z,18
2024-04-07T21:38:12.669Z,18
2024-04-07T21:40:38.764Z,18
2024-04-07T21:43:04.830Z,18
2024-04-07T21:45:29.960Z,18
2024-04-07T21:47:56.052Z,18
2024-04-07T21:50:22.155Z,18
2024-04-07T21:52:48.242Z,18
2024-04-07T21:55:14.332Z,18
2024-04-07T21:57:40.426Z,18
2024-04-07T22:00:06.518Z,18
2024-04-07T22:02:32.621Z,18
2024-04-07T22:04:58.707Z,18
2024-04-07T22:07:24.805Z,18
2024-04-07T22:09:50.906Z,18
2024-04-07T22:12:17.018Z,18
2024-04-07T22:14:43.091Z,18
2024-04-07T22:17:08.203Z,18
2024-04-07T22:19:34.291Z,17.9
2024-04-07T22:22:00.389Z,17.9
2024-04-07T22:24:26.494Z,17.9
2024-04-07T22:26:52.589Z,17.9
2024-04-07T22:29:18.721Z,17.9
2024-04-07T22:31:44.768Z,17.8
2024-04-07T22:34:10.862Z,17.8
2024-04-07T22:36:36.972Z,17.8
2024-04-07T22:39:03.056Z,17.8
2024-04-07T22:41:29.166Z,17.8
2024-04-07T22:43:55.240Z,17.8
2024-04-07T22:46:21.344Z,17.8
2024-04-07T22:48:46.476Z,17.8
2024-04-07T22:51:12.556Z,17.8
2024-04-07T22:53:38.638Z,17.7
2024-04-07T22:56:04.736Z,17.7
2024-04-07T22:58:30.820Z,17.7
2024-04-07T23:00:56.918Z,17.6
2024-04-07T23:03:23.017Z,17.6
2024-04-07T23:05:49.118Z,17.5
2024-04-07T23:08:15.207Z,17.5
2024-04-07T23:10:41.313Z,17.5
2024-04-07T23:13:07.393Z,17.5
2024-04-07T23:15:33.474Z,17.4
2024-04-07T23:17:59.579Z,17.4
2024-04-07T23:20:24.680Z,17.4
2024-04-07T23:22:50.818Z,17.3
2024-04-07T23:25:16.888Z,17.3
2024-04-07T23:27:42.969Z,17.2
2024-04-07T23:30:09.070Z,17.2
2024-04-07T23:32:35.155Z,17.1
2024-04-07T23:35:01.262Z,17.1
2024-04-07T23:37:27.352Z,17.1
2024-04-07T23:39:53.456Z,17.1
2024-04-07T23:42:19.543Z,17.1
2024-04-07T23:44:45.646Z,17.3
2024-04-07T23:47:11.737Z,17.6
2024-04-07T23:49:37.847Z,17.8
2024-04-07T23:52:02.943Z,18.1
2024-04-07T23:54:29.019Z,18.2
2024-04-07T23:56:55.130Z,18.3
2024-04-07T23:59:21.209Z,18.5
